createdAt,value
2023-02-06T00:01:09.326Z,1.40
2023-02-06T00:03:42.373Z,1.49
2023-02-06T00:06:13.064Z,1.56
2023-02-06T00:08:39.792Z,1.71
2023-02-06T00:11:12.799Z,1.74
2023-02-06T00:13:42.077Z,1.63
2023-02-06T00:16:28.276Z,1.45
2023-02-06T00:18:57.896Z,1.65
2023-02-06T00:21:31.129Z,1.73
2023-02-06T00:24:16.063Z,1.55
2023-02-06T00:26:44.691Z,2.01
2023-02-06T00:29:14.015Z,1.74
2023-02-06T00:31:40.715Z,2.01
2023-02-06T00:34:10.455Z,1.92
2023-02-06T00:36:37.595Z,1.56
2023-02-06T00:39:11.266Z,1.66
2023-02-06T00:41:38.710Z,1.70
2023-02-06T00:44:08.636Z,1.71
2023-02-06T00:46:40.712Z,1.74
2023-02-06T00:49:07.520Z,1.69
2023-02-06T00:51:36.206Z,1.85
2023-02-06T00:54:05.461Z,1.68
2023-02-06T00:56:32.515Z,1.74
2023-02-06T00:59:01.059Z,1.90
2023-02-06T01:01:30.615Z,1.50
2023-02-06T01:03:57.416Z,1.60
2023-02-06T01:06:24.337Z,1.57
2023-02-06T01:08:51.436Z,1.61
2023-02-06T01:11:22.627Z,2.12
2023-02-06T01:13:50.217Z,2.14
2023-02-06T01:16:20.788Z,1.92
2023-02-06T01:18:53.296Z,1.98
2023-02-06T01:21:25.216Z,1.58
2023-02-06T01:23:54.156Z,1.89
2023-02-06T01:26:34.656Z,1.60
2023-02-06T01:29:06.737Z,1.73
2023-02-06T01:31:33.483Z,1.81
2023-02-06T01:34:02.008Z,1.81
2023-02-06T01:36:29.206Z,1.69
2023-02-06T01:38:56.279Z,1.82
2023-02-06T01:41:24.267Z,2.03
2023-02-06T01:44:18.277Z,2.19
2023-02-06T01:46:47.822Z,2.00
2023-02-06T01:49:35.764Z,2.11
2023-02-06T01:52:14.556Z,2.21
2023-02-06T01:54:41.965Z,2.08
2023-02-06T01:57:11.829Z,1.82
2023-02-06T01:59:43.038Z,1.72
2023-02-06T02:02:10.168Z,2.01
2023-02-06T02:04:39.246Z,2.07
2023-02-06T02:07:37.476Z,1.88
2023-02-06T02:10:05.474Z,1.68
2023-02-06T02:12:32.177Z,1.78
2023-02-06T02:14:59.336Z,1.98
2023-02-06T02:18:02.537Z,2.23
2023-02-06T02:20:31.980Z,2.24
2023-02-06T02:23:18.652Z,1.88
2023-02-06T02:26:15.090Z,2.24
2023-02-06T02:32:33.249Z,2.28
2023-02-06T02:35:35.838Z,2.29
2023-02-06T02:38:45.561Z,2.04
2023-02-06T02:41:46.088Z,2.29
2023-02-06T02:44:19.559Z,2.06
2023-02-06T02:46:50.648Z,2.09
2023-02-06T02:49:58.288Z,1.69
2023-02-06T02:52:26.814Z,2.07
2023-02-06T02:54:54.366Z,2.06
2023-02-06T02:57:31.828Z,2.23
2023-02-06T03:00:00.749Z,2.35
2023-02-06T03:02:35.005Z,2.12
2023-02-06T03:05:11.440Z,2.14
2023-02-06T03:08:14.879Z,2.07
2023-02-06T03:10:52.201Z,2.38
2023-02-06T03:13:51.139Z,2.38
2023-02-06T03:16:26.231Z,2.38
2023-02-06T03:19:02.930Z,2.19
2023-02-06T03:21:32.281Z,2.01
2023-02-06T03:24:03.129Z,2.01
2023-02-06T03:26:32.342Z,2.03
2023-02-06T03:29:02.384Z,2.17
2023-02-06T03:31:35.160Z,2.18
2023-02-06T03:34:18.659Z,2.04
2023-02-06T03:36:45.411Z,2.13
2023-02-06T03:39:12.816Z,2.07
2023-02-06T03:41:41.076Z,2.21
2023-02-06T03:44:12.279Z,2.31
2023-02-06T03:46:42.220Z,2.26
2023-02-06T03:49:14.066Z,2.30
2023-02-06T03:51:48.713Z,2.50
2023-02-06T03:54:19.021Z,2.29
2023-02-06T03:57:03.171Z,2.38
2023-02-06T03:59:31.191Z,2.28
2023-02-06T04:02:00.987Z,2.50
2023-02-06T04:04:39.573Z,2.34
2023-02-06T04:07:17.617Z,2.33
2023-02-06T04:09:44.309Z,2.43
2023-02-06T04:12:11.763Z,2.13
2023-02-06T04:14:38.836Z,2.28
2023-02-06T04:17:06.076Z,2.36
2023-02-06T04:19:33.198Z,2.40
2023-02-06T04:21:59.921Z,2.41
2023-02-06T04:24:26.616Z,2.33
2023-02-06T04:26:55.641Z,2.56
2023-02-06T04:29:22.340Z,2.19
2023-02-06T04:31:48.890Z,2.46
2023-02-06T04:34:15.486Z,2.39
2023-02-06T04:36:42.147Z,2.58
2023-02-06T04:39:09.064Z,2.24
2023-02-06T04:41:35.904Z,2.24
2023-02-06T04:44:02.475Z,2.30
2023-02-06T04:46:29.164Z,2.14
2023-02-06T04:48:55.892Z,2.25
2023-02-06T04:51:22.745Z,2.25
2023-02-06T04:53:49.399Z,2.44
2023-02-06T04:56:16.097Z,2.36
2023-02-06T04:58:42.789Z,2.47
2023-02-06T05:01:09.698Z,2.44
2023-02-06T05:03:36.420Z,2.44
2023-02-06T05:06:04.760Z,2.59
2023-02-06T05:08:39.131Z,2.50
2023-02-06T05:11:06.182Z,2.76
2023-02-06T05:13:34.246Z,2.60
2023-02-06T05:16:11.926Z,2.80
2023-02-06T05:18:39.261Z,2.69
2023-02-06T05:21:06.382Z,2.66
2023-02-06T05:23:33.261Z,2.85
2023-02-06T05:26:00.769Z,2.65
2023-02-06T05:28:29.853Z,2.53
2023-02-06T05:30:57.210Z,2.39
2023-02-06T05:33:24.172Z,2.74
2023-02-06T05:35:50.710Z,2.76
2023-02-06T05:38:17.645Z,2.67
2023-02-06T05:40:44.704Z,2.63
2023-02-06T05:43:11.717Z,2.92
2023-02-06T05:45:38.509Z,2.69
2023-02-06T05:48:05.486Z,2.59
2023-02-06T05:50:34.382Z,2.63
2023-02-06T05:53:01.066Z,2.68
2023-02-06T05:55:27.890Z,2.74
2023-02-06T05:57:54.438Z,2.64
2023-02-06T06:00:35.019Z,2.88
2023-02-06T06:03:01.715Z,2.81
2023-02-06T06:05:29.442Z,2.46
2023-02-06T06:07:56.377Z,2.70
2023-02-06T06:10:29.305Z,2.39
2023-02-06T06:13:00.628Z,2.41
2023-02-06T06:15:27.514Z,2.48
2023-02-06T06:17:58.633Z,2.49
2023-02-06T06:20:25.642Z,2.29
2023-02-06T06:22:52.576Z,2.77
2023-02-06T06:25:19.317Z,2.68
2023-02-06T06:27:45.957Z,2.33
2023-02-06T06:30:12.979Z,2.56
2023-02-06T06:32:39.750Z,2.53
2023-02-06T06:35:07.733Z,2.34
2023-02-06T06:37:40.656Z,2.66
2023-02-06T06:40:10.359Z,2.35
2023-02-06T06:42:37.402Z,2.29
2023-02-06T06:45:08.243Z,2.60
2023-02-06T06:47:43.422Z,2.30
2023-02-06T06:50:46.416Z,2.06
2023-02-06T06:53:22.153Z,1.84
2023-02-06T06:56:27.042Z,1.84
2023-02-06T06:58:58.296Z,1.72
2023-02-06T07:01:33.671Z,1.56
2023-02-06T07:04:09.904Z,1.89
2023-02-06T07:10:19.580Z,1.31
2023-02-06T07:13:01.623Z,1.54
2023-02-06T07:21:26.887Z,0.97
2023-02-06T07:24:33.128Z,1.43
2023-02-06T07:27:05.154Z,0.94
2023-02-06T07:29:41.980Z,0.89
2023-02-06T09:33:44.377Z,2.55
2023-02-06T09:36:23.502Z,2.10
2023-02-06T09:39:05.487Z,2.55
2023-02-06T10:07:25.064Z,4.17
2023-02-06T10:13:57.311Z,4.19
2023-02-06T10:16:26.837Z,4.81
2023-02-06T10:19:21.307Z,4.94
2023-02-06T10:22:22.529Z,5.52
2023-02-06T10:25:29.682Z,5.44
2023-02-06T10:28:25.421Z,5.78
2023-02-06T10:31:21.757Z,6.30
2023-02-06T10:33:57.507Z,6.50
2023-02-06T10:37:04.649Z,6.72
2023-02-06T10:40:06.722Z,6.93
2023-02-06T10:42:54.808Z,7.16
2023-02-06T10:46:23.084Z,7.40
2023-02-06T10:49:02.728Z,7.09
2023-02-06T10:51:38.880Z,7.54
2023-02-06T10:54:15.932Z,7.81
2023-02-06T10:56:52.168Z,7.86
2023-02-06T10:59:37.488Z,8.68
2023-02-06T11:02:34.470Z,8.40
2023-02-06T11:05:08.451Z,9.26
2023-02-06T11:07:54.200Z,9.03
2023-02-06T11:10:28.536Z,9.40
2023-02-06T11:13:16.541Z,9.99
2023-02-06T11:16:17.141Z,9.68
2023-02-06T11:18:51.409Z,10.17
2023-02-06T11:22:01.035Z,10.37
2023-02-06T11:24:27.716Z,10.37
2023-02-06T11:27:05.016Z,10.79
2023-02-06T11:30:02.622Z,10.57
2023-02-06T11:33:09.160Z,10.68
2023-02-06T11:38:55.024Z,11.49
2023-02-06T11:41:24.060Z,11.31
2023-02-06T11:43:58.654Z,11.97
2023-02-06T11:46:34.242Z,11.60
2023-02-06T11:49:11.523Z,11.73
2023-02-06T11:51:51.896Z,12.10
2023-02-06T11:54:41.632Z,12.21
2023-02-06T11:57:26.646Z,12.39
2023-02-06T12:00:01.158Z,12.26
2023-02-06T12:02:34.241Z,12.72
2023-02-06T12:05:25.334Z,12.83
2023-02-06T12:08:05.066Z,12.92
2023-02-06T12:10:55.107Z,12.69
2023-02-06T12:13:27.881Z,12.51
2023-02-06T12:15:58.716Z,12.90
2023-02-06T12:18:41.412Z,12.70
2023-02-06T12:21:24.544Z,13.00
2023-02-06T12:24:02.174Z,13.48
2023-02-06T12:26:34.194Z,13.44
2023-02-06T12:29:23.131Z,13.45
2023-02-06T12:32:04.730Z,13.65
2023-02-06T12:34:53.575Z,13.48
2023-02-06T12:37:39.814Z,13.53
2023-02-06T12:40:27.060Z,13.65
2023-02-06T12:43:01.692Z,13.37
2023-02-06T12:45:57.565Z,13.81
2023-02-06T12:48:44.027Z,13.86
2023-02-06T12:51:42.817Z,13.98
2023-02-06T12:54:21.993Z,14.20
2023-02-06T12:57:17.334Z,14.31
2023-02-06T13:00:02.719Z,14.33
2023-02-06T13:03:01.178Z,14.36
2023-02-06T13:05:37.387Z,14.31
2023-02-06T13:08:09.994Z,14.12
2023-02-06T13:10:37.879Z,14.24
2023-02-06T13:13:05.491Z,14.21
2023-02-06T13:15:37.863Z,13.88
2023-02-06T13:18:37.012Z,14.01
2023-02-06T13:21:32.461Z,13.89
2023-02-06T13:24:15.641Z,13.71
2023-02-06T13:26:56.573Z,13.52
2023-02-06T13:29:30.520Z,13.42
2023-02-06T13:32:17.826Z,13.22
2023-02-06T13:34:53.979Z,12.76
2023-02-06T13:37:44.945Z,13.03
2023-02-06T13:40:24.417Z,12.89
2023-02-06T13:43:19.004Z,12.71
2023-02-06T13:46:04.472Z,12.53
2023-02-06T13:48:33.999Z,12.62
2023-02-06T13:51:33.301Z,12.52
2023-02-06T13:54:12.534Z,12.01
2023-02-06T13:56:42.178Z,12.40
2023-02-06T13:59:21.112Z,12.21
2023-02-06T14:01:51.019Z,12.14
2023-02-06T14:04:24.880Z,12.29
2023-02-06T14:07:31.183Z,12.11
2023-02-06T14:10:06.815Z,12.34
2023-02-06T14:12:54.882Z,12.30
2023-02-06T14:15:29.117Z,12.06
2023-02-06T14:18:15.582Z,12.28
2023-02-06T14:20:52.561Z,12.14
2023-02-06T14:23:45.568Z,12.32
2023-02-06T14:26:45.851Z,12.34
2023-02-06T14:32:51.206Z,12.34
2023-02-06T14:35:57.260Z,12.31
2023-02-06T14:39:09.675Z,12.19
2023-02-06T14:41:39.798Z,12.16
2023-02-06T14:44:20.334Z,12.14
2023-02-06T14:46:47.687Z,12.03
2023-02-06T14:49:18.911Z,12.21
2023-02-06T14:51:50.625Z,12.07
2023-02-06T14:54:34.262Z,12.18
2023-02-06T14:57:21.067Z,12.14
2023-02-06T15:00:23.203Z,12.47
2023-02-06T15:03:17.719Z,12.19
2023-02-06T15:06:14.682Z,11.98
2023-02-06T15:08:51.012Z,12.39
2023-02-06T15:11:32.470Z,12.39
2023-02-06T15:14:07.238Z,12.54
2023-02-06T15:16:51.018Z,12.46
2023-02-06T15:19:27.739Z,12.63
2023-02-06T15:22:17.254Z,13.00
2023-02-06T15:24:52.992Z,13.23
2023-02-06T15:27:57.681Z,13.39
2023-02-06T15:30:44.116Z,13.36
2023-02-06T15:34:26.005Z,13.25
2023-02-06T15:36:30.843Z,13.56
2023-02-06T15:39:02.871Z,13.43
2023-02-06T15:41:32.707Z,13.89
2023-02-06T15:44:40.451Z,13.91
2023-02-06T15:47:14.013Z,13.46
2023-02-06T15:50:07.478Z,13.59
2023-02-06T15:52:42.888Z,13.83
2023-02-06T15:55:33.239Z,13.83
2023-02-06T15:58:06.277Z,13.62
2023-02-06T16:00:38.235Z,13.63
2023-02-06T16:03:21.711Z,13.49
2023-02-06T16:05:53.424Z,13.57
2023-02-06T16:08:30.877Z,13.02
2023-02-06T16:11:54.178Z,12.92
2023-02-06T16:15:08.394Z,12.67
2023-02-06T16:17:43.637Z,12.20
2023-02-06T16:20:52.480Z,12.02
2023-02-06T16:23:53.052Z,11.85
2023-02-06T16:27:20.226Z,12.20
2023-02-06T16:30:09.309Z,11.46
2023-02-06T16:32:56.660Z,11.46
2023-02-06T16:36:05.212Z,11.13
2023-02-06T16:39:03.699Z,10.82
2023-02-06T16:45:31.491Z,10.32
2023-02-06T16:48:18.489Z,10.51
2023-02-06T16:51:31.664Z,9.88
2023-02-06T16:54:09.631Z,10.00
2023-02-06T17:02:03.425Z,9.35
2023-02-06T17:04:58.180Z,8.94
2023-02-06T17:09:37.840Z,9.04
2023-02-06T17:21:27.470Z,8.46
2023-02-06T20:30:41.873Z,1.99
2023-02-06T20:37:46.356Z,2.21
2023-02-06T21:08:21.033Z,1.94
2023-02-06T21:15:21.312Z,2.14
2023-02-06T21:25:08.694Z,2.32
2023-02-06T21:28:48.617Z,1.91
2023-02-06T21:41:34.529Z,2.00
2023-02-06T21:56:04.287Z,2.16
2023-02-06T21:58:49.126Z,1.87
2023-02-06T22:01:43.501Z,2.06
2023-02-06T22:05:24.812Z,2.00
2023-02-06T22:48:28.561Z,1.30
2023-02-06T22:51:52.632Z,1.46
2023-02-06T23:03:29.467Z,1.68
2023-02-06T23:31:33.276Z,0.90
2023-02-06T23:34:00.839Z,0.67
2023-02-06T23:36:40.372Z,0.80
2023-02-06T23:39:18.613Z,0.88
2023-02-06T23:41:54.660Z,0.45
2023-02-06T23:48:03.006Z,0.95
2023-02-06T23:50:56.613Z,0.30
2023-02-06T23:53:53.037Z,0.47
2023-02-06T23:57:01.787Z,0.58
